This is the latest recevied weather packets stored in our database for station/object VE4GLS. If no packets are shown the sender has not sent any weather packets the latest 10 day(s).
| Time | Temp. | Humidity | Pressure | Rain* | Wind** | Luminosity | Snow |
|---|---|---|---|---|---|---|---|
| 1777728194 | 6.67° C | 60% | 1007 hPa | 0 mm | - | - | - |
| 1777727856 | 6.11° C | 60% | 1007.2 hPa | 0 mm | - | - | - |
| 1777727594 | 6.11° C | 60% | 1007.3 hPa | 0 mm | - | - | - |
| 1777726994 | 5.56° C | 60% | 1007.4 hPa | 0 mm | - | - | - |
| 1777726956 | 5.56° C | 60% | 1007.4 hPa | 0 mm | - | - | - |
| 1777726394 | 5.56° C | 60% | 1007.4 hPa | 0 mm | - | - | - |
| 1777726055 | 5.56° C | 61% | 1007.5 hPa | 0 mm | - | - | - |
| 1777725793 | 5° C | 61% | 1007.6 hPa | 0 mm | - | - | - |
| 1777725194 | 4.44° C | 62% | 1007.7 hPa | 0 mm | - | - | - |
| 1777725154 | 4.44° C | 62% | 1007.8 hPa | 0 mm | - | - | - |
| 1777724595 | 3.89° C | 63% | 1008 hPa | 0 mm | - | - | - |
| 1777724255 | 3.33° C | 64% | 1008.1 hPa | 0 mm | - | - | - |
| 1777723994 | 3.33° C | 64% | 1008.1 hPa | 0 mm | - | - | - |
| 1777723394 | 2.22° C | 65% | 1008.4 hPa | 0 mm | - | - | - |
| 1777723354 | 2.22° C | 65% | 1008.3 hPa | 0 mm | - | - | - |
| 1777722794 | 2.22° C | 65% | 1008.4 hPa | 0 mm | - | - | - |
| 1777722456 | 2.22° C | 64% | 1008.4 hPa | 0 mm | - | - | - |
| 1777722194 | 2.22° C | 64% | 1008.5 hPa | 0 mm | - | - | - |
| 1777721594 | 2.22° C | 63% | 1008.6 hPa | 0 mm | - | - | - |
| 1777721556 | 2.22° C | 63% | 1008.6 hPa | 0 mm | - | - | - |
| 1777720994 | 2.22° C | 63% | 1008.7 hPa | 0 mm | - | - | - |
| 1777720655 | 2.22° C | 63% | 1008.8 hPa | 0 mm | - | - | - |
| 1777720393 | 2.22° C | 62% | 1008.9 hPa | 0 mm | - | - | - |
| 1777719793 | 2.22° C | 62% | 1009 hPa | 0 mm | - | - | - |
| 1777719755 | 2.22° C | 62% | 1009.1 hPa | 0 mm | - | - | - |
* Rain latest hour (hover to see other rain measurements)
** Current wind speed in m/s (hover to see current wind gust speed)